Time;durP1;ratioP1;P1;durP2;ratioP2;P2;SDS_P1;SDS_P2;PMS_P1;PMS_P2;Temp;Humidity;BMP_temperature;BMP_pressure;BME280_temperature;BME280_humidity;BME280_pressure;Samples;Min_cycle;Max_cycle;Signal;HPM_P1;HPM_P2
2022/04/14 00:00:53;;;;;;;18.92;10.65;;;7.70;99.90;;;;;;4996430;28;20062;-83
2022/04/14 00:03:30;;;;;;;18.23;10.68;;;7.60;99.90;;;;;;4995130;28;20029;-83
2022/04/14 00:05:56;;;;;;;17.73;10.32;;;7.60;99.90;;;;;;4996323;28;20027;-82
2022/04/14 00:08:21;;;;;;;23.17;12.40;;;7.60;99.90;;;;;;4996201;28;20074;-83
2022/04/14 00:10:47;;;;;;;20.65;11.68;;;7.60;99.90;;;;;;4995859;28;20034;-83
2022/04/14 00:13:12;;;;;;;19.15;11.18;;;7.50;99.90;;;;;;4995773;28;20034;-83
2022/04/14 00:15:38;;;;;;;21.45;11.48;;;7.50;99.90;;;;;;4994344;28;20038;-83
2022/04/14 00:18:37;;;;;;;20.08;11.98;;;7.50;99.90;;;;;;4994610;28;20058;-83
2022/04/14 00:21:03;;;;;;;22.67;12.40;;;7.60;99.90;;;;;;4995828;28;20026;-83
2022/04/14 00:23:47;;;;;;;23.77;12.95;;;7.70;99.90;;;;;;4995946;28;20433;-83
2022/04/14 00:26:12;;;;;;;28.35;14.25;;;7.80;99.90;;;;;;5003117;28;20040;-83
2022/04/14 00:28:38;;;;;;;26.08;14.43;;;7.80;99.90;;;;;;5015306;28;20026;-83
2022/04/14 00:31:04;;;;;;;27.30;14.60;;;7.90;99.90;;;;;;5015551;28;20022;-83
2022/04/14 00:33:33;;;;;;;28.73;15.30;;;8.00;99.90;;;;;;5001891;28;20085;-83
2022/04/14 00:35:58;;;;;;;30.52;16.00;;;8.00;99.90;;;;;;4994252;28;20470;-82
2022/04/14 00:38:24;;;;;;;28.73;15.45;;;8.00;99.90;;;;;;4994439;28;20033;-82
2022/04/14 00:40:52;;;;;;;28.35;15.45;;;8.00;99.90;;;;;;4995291;28;20050;-82
2022/04/14 00:43:18;;;;;;;28.80;16.67;;;8.10;99.90;;;;;;4995567;28;20109;-82
2022/04/14 00:45:44;;;;;;;30.17;15.32;;;7.90;99.90;;;;;;4995266;28;20092;-83
2022/04/14 00:48:10;;;;;;;31.75;16.58;;;7.90;1.00;;;;;;4995103;28;20026;-82
2022/04/14 00:50:35;;;;;;;28.83;15.85;;;7.80;1.00;;;;;;4993983;28;20041;-82
2022/04/14 00:53:01;;;;;;;31.05;15.90;;;7.80;1.00;;;;;;4993866;28;20037;-83
2022/04/14 00:55:27;;;;;;;31.75;16.75;;;7.80;1.00;;;;;;4993873;28;20375;-82
2022/04/14 00:57:53;;;;;;;30.30;15.95;;;7.70;1.00;;;;;;4993726;28;20119;-83
2022/04/14 01:00:18;;;;;;;39.38;17.80;;;7.70;1.00;;;;;;4994882;28;20022;-83
2022/04/14 01:02:44;;;;;;;33.80;16.17;;;7.70;1.00;;;;;;4993779;28;20430;-83
2022/04/14 01:05:10;;;;;;;34.05;17.75;;;7.60;1.00;;;;;;4994870;28;20475;-83
2022/04/14 01:07:37;;;;;;;35.92;17.92;;;7.70;1.00;;;;;;4993647;28;20053;-83
2022/04/14 01:10:04;;;;;;;39.28;18.75;;;7.90;1.00;;;;;;4994842;28;20022;-83
2022/04/14 01:12:31;;;;;;;37.10;18.75;;;8.00;1.00;;;;;;4994662;28;20030;-82
2022/04/14 01:14:57;;;;;;;42.67;19.25;;;8.00;1.00;;;;;;5051253;23;20064;-80
2022/04/14 01:17:23;;;;;;;39.42;18.73;;;8.10;3.90;;;;;;5053612;28;20037;-81
2022/04/14 01:19:48;;;;;;;38.15;18.20;;;8.00;24.40;;;;;;5051191;28;20018;-81
2022/04/14 01:22:26;;;;;;;38.42;19.17;;;8.10;43.60;;;;;;5051328;28;20028;-81
2022/04/14 01:24:56;;;;;;;42.63;20.50;;;8.10;72.90;;;;;;5042819;28;20021;-81
2022/04/14 01:27:22;;;;;;;44.30;20.50;;;8.10;85.70;;;;;;5051357;28;20083;-79
2022/04/14 01:29:51;;;;;;;37.40;19.02;;;8.00;87.30;;;;;;5035601;28;20030;-80
2022/04/14 01:32:21;;;;;;;39.60;19.23;;;8.00;94.30;;;;;;5037708;28;20081;-81
2022/04/14 01:34:48;;;;;;;39.47;19.80;;;7.90;98.70;;;;;;5053506;28;20083;-79
2022/04/14 01:37:13;;;;;;;35.65;18.67;;;7.90;94.40;;;;;;5052184;28;20266;-79
2022/04/14 01:39:39;;;;;;;37.05;19.38;;;7.80;95.30;;;;;;5054722;28;20025;-80
2022/04/14 01:42:05;;;;;;;37.00;19.50;;;7.70;91.50;;;;;;5041118;28;20041;-81
2022/04/14 01:44:32;;;;;;;37.00;19.23;;;7.70;91.30;;;;;;5042628;28;20077;-79
2022/04/14 01:46:57;;;;;;;42.95;20.35;;;7.60;91.70;;;;;;5044084;28;20073;-79
2022/04/14 01:49:23;;;;;;;38.17;19.58;;;7.60;92.90;;;;;;5045123;28;20021;-80
2022/04/14 01:51:49;;;;;;;37.58;20.33;;;7.70;99.90;;;;;;5053457;28;20037;-80
2022/04/14 01:54:14;;;;;;;37.05;19.15;;;7.60;99.90;;;;;;5049662;28;20052;-81
2022/04/14 01:56:41;;;;;;;38.15;20.45;;;7.50;99.90;;;;;;5039531;28;20085;-81
2022/04/14 01:59:07;;;;;;;41.78;19.63;;;7.50;99.90;;;;;;5055084;28;20081;-81
2022/04/14 02:01:33;;;;;;;41.30;19.80;;;7.50;99.90;;;;;;5055478;28;20092;-80
2022/04/14 02:03:58;;;;;;;38.08;19.08;;;7.50;99.90;;;;;;5051027;28;20034;-81
2022/04/14 02:06:24;;;;;;;39.92;20.35;;;7.40;99.90;;;;;;5042108;28;20104;-81
2022/04/14 02:08:50;;;;;;;37.42;18.85;;;7.30;99.90;;;;;;5046930;28;20041;-80
2022/04/14 02:11:16;;;;;;;31.20;17.23;;;7.30;99.90;;;;;;5042535;28;20060;-80
2022/04/14 02:13:43;;;;;;;38.35;19.02;;;7.10;99.90;;;;;;5043005;28;20053;-80
2022/04/14 02:16:08;;;;;;;31.70;16.88;;;7.10;99.90;;;;;;5032249;28;20029;-79
2022/04/14 02:18:34;;;;;;;39.10;19.02;;;7.10;99.90;;;;;;5035409;28;20034;-81
2022/04/14 02:21:00;;;;;;;36.22;18.92;;;7.10;99.90;;;;;;5034877;28;20041;-80
2022/04/14 02:23:26;;;;;;;34.25;18.50;;;7.10;99.90;;;;;;5044825;28;20018;-81
2022/04/14 02:25:51;;;;;;;31.95;17.75;;;7.10;99.90;;;;;;5038125;28;20022;-81
2022/04/14 02:28:17;;;;;;;31.75;18.80;;;7.10;99.90;;;;;;5035389;28;20022;-81
2022/04/14 02:30:42;;;;;;;39.55;19.38;;;7.10;99.90;;;;;;5050143;28;20028;-80
2022/04/14 02:33:08;;;;;;;37.25;18.73;;;7.00;99.90;;;;;;5045038;28;20034;-79
2022/04/14 02:35:33;;;;;;;32.88;17.77;;;7.00;99.90;;;;;;5043747;28;20045;-80
2022/04/14 02:37:59;;;;;;;33.65;18.55;;;7.00;99.90;;;;;;5035454;28;20018;-81
2022/04/14 02:40:25;;;;;;;38.85;19.48;;;7.00;99.90;;;;;;5036922;28;20017;-80
2022/04/14 02:42:56;;;;;;;39.00;19.48;;;7.10;99.90;;;;;;5038861;28;20029;-80
2022/04/14 02:45:22;;;;;;;36.90;19.42;;;7.10;99.90;;;;;;5041391;28;20024;-81
2022/04/14 02:47:48;;;;;;;34.90;18.67;;;6.90;99.90;;;;;;5051646;28;20025;-81
2022/04/14 02:50:13;;;;;;;35.00;19.90;;;6.80;99.90;;;;;;5048377;28;20017;-81
2022/04/14 02:52:39;;;;;;;37.35;18.80;;;6.80;99.90;;;;;;5046110;28;20058;-80
2022/04/14 02:55:05;;;;;;;38.63;19.73;;;6.90;99.90;;;;;;5046716;28;20213;-81
2022/04/14 02:57:30;;;;;;;35.75;19.05;;;6.80;99.90;;;;;;5043682;28;20029;-80
2022/04/14 02:59:57;;;;;;;33.13;17.92;;;7.00;99.90;;;;;;5056733;28;20030;-78
2022/04/14 03:02:23;;;;;;;35.17;18.58;;;6.70;99.90;;;;;;5050123;28;20073;-78
2022/04/14 03:04:49;;;;;;;31.88;17.30;;;6.70;99.90;;;;;;5050972;28;20044;-78
2022/04/14 03:07:14;;;;;;;35.00;16.83;;;6.70;99.90;;;;;;5049461;28;20033;-78
2022/04/14 03:09:40;;;;;;;31.70;18.35;;;6.60;99.90;;;;;;5041292;28;20028;-77
2022/04/14 03:12:06;;;;;;;37.78;18.38;;;6.60;99.90;;;;;;5050462;28;20239;-78
2022/04/14 03:14:32;;;;;;;33.30;18.10;;;6.50;99.90;;;;;;5041024;28;20105;-78
2022/04/14 03:16:57;;;;;;;34.60;17.00;;;6.50;99.90;;;;;;5043783;28;20026;-79
2022/04/14 03:19:23;;;;;;;33.63;16.95;;;6.50;99.90;;;;;;5047913;28;20025;-79
2022/04/14 03:21:50;;;;;;;31.85;16.50;;;6.50;99.90;;;;;;5058418;28;20029;-78
2022/04/14 03:24:15;;;;;;;32.33;16.08;;;6.50;99.90;;;;;;5050060;28;20018;-77
2022/04/14 03:26:41;;;;;;;28.05;16.30;;;6.70;99.90;;;;;;5042619;28;20032;-77
2022/04/14 03:29:07;;;;;;;24.45;15.35;;;6.70;99.90;;;;;;5052179;28;20037;-78
2022/04/14 03:31:32;;;;;;;32.53;16.23;;;6.80;99.90;;;;;;5056350;28;20064;-79
2022/04/14 03:33:58;;;;;;;33.08;15.85;;;6.90;99.90;;;;;;5044423;28;20022;-79
2022/04/14 03:36:24;;;;;;;30.10;14.95;;;6.80;99.90;;;;;;5039068;28;20056;-79
2022/04/14 03:38:49;;;;;;;23.77;14.38;;;6.80;99.90;;;;;;5046288;28;20065;-78
2022/04/14 03:41:15;;;;;;;23.60;13.85;;;6.80;99.90;;;;;;5045261;28;20025;-78
2022/04/14 03:43:40;;;;;;;26.92;14.93;;;6.80;99.90;;;;;;5058393;28;20025;-79
2022/04/14 03:46:06;;;;;;;32.10;16.30;;;6.80;99.90;;;;;;5044397;28;20094;-79
2022/04/14 03:48:32;;;;;;;26.33;15.05;;;6.80;99.90;;;;;;5038563;28;20022;-79
2022/04/14 03:50:58;;;;;;;39.50;16.50;;;6.70;99.90;;;;;;5043001;28;20029;-79
2022/04/14 03:53:24;;;;;;;27.65;15.98;;;6.70;99.90;;;;;;5058957;28;20082;-80
2022/04/14 03:55:50;;;;;;;35.70;17.35;;;6.50;99.90;;;;;;5030091;28;20033;-79
2022/04/14 03:58:15;;;;;;;36.35;17.75;;;6.60;99.90;;;;;;5037912;28;20084;-78
2022/04/14 04:00:42;;;;;;;34.80;17.50;;;6.60;99.90;;;;;;5037833;28;20011;-78
2022/04/14 04:03:12;;;;;;;42.42;19.25;;;6.60;99.90;;;;;;5038433;28;20089;-78
2022/04/14 04:05:38;;;;;;;36.35;18.08;;;6.70;99.90;;;;;;5047608;28;20025;-79
2022/04/14 04:08:05;;;;;;;36.72;17.73;;;6.50;99.90;;;;;;5057444;28;20044;-79
2022/04/14 04:10:30;;;;;;;36.85;18.75;;;6.50;99.90;;;;;;5041135;28;20026;-78
2022/04/14 04:12:56;;;;;;;35.75;18.08;;;6.30;99.90;;;;;;5039859;28;20055;-79
2022/04/14 04:15:21;;;;;;;34.90;17.80;;;6.40;99.90;;;;;;5037234;28;20042;-78
2022/04/14 04:17:47;;;;;;;35.40;17.80;;;6.30;99.90;;;;;;5038503;28;20017;-78
2022/04/14 04:20:13;;;;;;;34.83;18.15;;;6.20;99.90;;;;;;5037860;28;20034;-79
2022/04/14 04:22:40;;;;;;;35.30;18.20;;;6.40;99.90;;;;;;5037950;28;20018;-79
2022/04/14 04:25:06;;;;;;;36.75;18.40;;;6.40;99.90;;;;;;5050516;28;20024;-79
2022/04/14 04:27:32;;;;;;;36.42;18.20;;;6.40;99.90;;;;;;5038988;28;20156;-80
2022/04/14 04:29:58;;;;;;;39.75;18.52;;;6.20;99.90;;;;;;5035107;28;20034;-81
2022/04/14 04:32:23;;;;;;;34.53;18.42;;;6.20;99.90;;;;;;5015912;28;20026;-80
2022/04/14 04:34:49;;;;;;;40.90;18.73;;;6.20;99.90;;;;;;5015222;28;20041;-79
2022/04/14 04:40:36;;;;;;;46.65;20.23;;;6.20;99.90;;;;;;5018662;28;20556;-80
2022/04/14 04:43:02;;;;;;;47.47;21.50;;;6.50;99.90;;;;;;5000892;28;20026;-80
2022/04/14 04:45:28;;;;;;;50.28;20.80;;;6.60;99.90;;;;;;4996269;28;20026;-79
2022/04/14 04:47:53;;;;;;;40.92;19.73;;;6.60;99.90;;;;;;5014810;28;20112;-80
2022/04/14 04:50:19;;;;;;;50.85;21.50;;;6.50;99.90;;;;;;5014524;28;20351;-79
2022/04/14 04:52:44;;;;;;;42.05;19.70;;;6.50;99.90;;;;;;4995286;28;20027;-79
2022/04/14 04:55:10;;;;;;;42.40;20.00;;;6.50;99.90;;;;;;4993924;28;20088;-79
2022/04/14 04:57:35;;;;;;;39.53;19.70;;;6.50;99.90;;;;;;5004688;28;20022;-81
2022/04/14 05:00:01;;;;;;;40.58;19.23;;;6.50;99.90;;;;;;5035369;28;20030;-81
2022/04/14 05:02:26;;;;;;;50.05;20.23;;;6.60;99.90;;;;;;5029940;28;20034;-81
2022/04/14 05:04:52;;;;;;;47.15;21.05;;;6.70;99.90;;;;;;5043094;28;20017;-82
2022/04/14 05:07:18;;;;;;;50.20;21.15;;;6.90;99.90;;;;;;5050781;28;20029;-81
2022/04/14 05:09:43;;;;;;;43.67;22.15;;;7.00;99.90;;;;;;5043961;28;20088;-81
2022/04/14 05:12:09;;;;;;;47.38;22.63;;;7.20;99.90;;;;;;5043629;28;20038;-81
2022/04/14 05:14:35;;;;;;;54.03;21.83;;;7.40;99.90;;;;;;5049207;28;20037;-81
2022/04/14 05:17:00;;;;;;;58.72;22.83;;;7.60;99.90;;;;;;5045701;28;20052;-82
2022/04/14 05:19:26;;;;;;;58.38;23.27;;;7.80;99.90;;;;;;5037493;28;20029;-82
2022/04/14 05:21:52;;;;;;;58.38;23.70;;;7.90;99.90;;;;;;5035801;28;20085;-83
2022/04/14 05:24:17;;;;;;;55.50;23.35;;;8.00;99.90;;;;;;5052925;28;20053;-82
2022/04/14 05:26:43;;;;;;;62.90;24.63;;;8.20;99.90;;;;;;5039408;28;20026;-81
2022/04/14 05:29:09;;;;;;;58.05;23.48;;;8.30;99.90;;;;;;5038263;28;20041;-82
2022/04/14 05:31:35;;;;;;;57.03;24.48;;;8.40;99.90;;;;;;5043388;28;20022;-82
2022/04/14 05:34:00;;;;;;;72.28;30.42;;;8.50;99.90;;;;;;5036414;28;20046;-82
2022/04/14 05:36:26;;;;;;;96.43;45.83;;;8.50;99.90;;;;;;5035053;28;20210;-79
2022/04/14 05:38:51;;;;;;;111.07;49.47;;;8.70;99.90;;;;;;5036659;28;20049;-80
2022/04/14 05:41:17;;;;;;;95.32;49.22;;;8.90;99.90;;;;;;5022657;28;20040;-80
2022/04/14 05:43:42;;;;;;;92.57;50.42;;;8.80;99.90;;;;;;5021225;28;20022;-80
2022/04/14 05:46:08;;;;;;;81.38;43.33;;;8.80;99.90;;;;;;5023025;28;20036;-80
2022/04/14 05:48:33;;;;;;;77.22;40.67;;;8.70;99.90;;;;;;5017705;28;20018;-81
2022/04/14 05:50:59;;;;;;;69.93;37.13;;;8.70;99.90;;;;;;5025986;28;20022;-81
2022/04/14 05:53:26;;;;;;;66.78;36.08;;;8.70;99.90;;;;;;5038922;28;20038;-81
2022/04/14 05:55:52;;;;;;;58.35;32.63;;;8.90;99.90;;;;;;5044327;28;20006;-80
2022/04/14 05:58:18;;;;;;;51.70;29.95;;;9.10;99.90;;;;;;5044383;28;20032;-81
2022/04/14 06:00:43;;;;;;;47.60;26.00;;;9.20;99.90;;;;;;5031424;28;20013;-81
2022/04/14 06:03:09;;;;;;;54.13;26.27;;;9.40;99.90;;;;;;5026765;28;20095;-81
2022/04/14 06:05:35;;;;;;;46.17;25.77;;;9.50;99.90;;;;;;5036309;28;20041;-81
2022/04/14 06:08:01;;;;;;;48.33;24.70;;;9.60;99.90;;;;;;5026784;28;20037;-81
2022/04/14 06:10:27;;;;;;;43.40;23.80;;;9.70;99.90;;;;;;5047356;28;20028;-81
2022/04/14 06:12:55;;;;;;;39.30;23.95;;;9.80;99.90;;;;;;5055617;28;20437;-81
2022/04/14 06:15:21;;;;;;;41.00;22.88;;;10.00;99.90;;;;;;5038615;28;20072;-80
2022/04/14 06:17:46;;;;;;;42.13;22.30;;;10.10;99.90;;;;;;5045469;28;20022;-80
2022/04/14 06:20:12;;;;;;;39.83;21.70;;;10.20;99.90;;;;;;5042266;28;20022;-81
2022/04/14 06:22:42;;;;;;;38.25;20.30;;;10.40;99.90;;;;;;5040242;28;20078;-80
2022/04/14 06:25:22;;;;;;;43.40;22.65;;;10.50;70.40;;;;;;5047486;28;20026;-81
2022/04/14 06:27:48;;;;;;;38.97;20.90;;;10.70;1.00;;;;;;5059645;28;20017;-80
2022/04/14 06:30:16;;;;;;;43.13;21.50;;;10.90;1.00;;;;;;5050750;28;20037;-82
2022/04/14 06:32:42;;;;;;;40.17;21.05;;;11.00;1.00;;;;;;5040373;28;20018;-81
2022/04/14 06:35:13;;;;;;;35.38;19.38;;;11.20;99.90;;;;;;5056001;28;20025;-81
2022/04/14 06:37:39;;;;;;;32.88;18.35;;;11.30;99.90;;;;;;5032605;28;20009;-81
2022/04/14 06:40:06;;;;;;;36.40;18.30;;;11.50;99.90;;;;;;5048539;28;20036;-81
2022/04/14 06:42:32;;;;;;;35.90;18.38;;;11.60;99.90;;;;;;5058037;28;20028;-80
2022/04/14 06:44:59;;;;;;;38.70;19.60;;;14.00;99.90;;;;;;5039221;28;20034;-81
2022/04/14 06:47:26;;;;;;;34.92;17.98;;;18.30;99.90;;;;;;5029864;28;20042;-80
2022/04/14 06:49:51;;;;;;;34.50;16.67;;;20.80;1.00;;;;;;5052852;28;20037;-81
2022/04/14 06:52:17;;;;;;;29.70;15.18;;;22.90;99.90;;;;;;5043497;28;20081;-82
2022/04/14 06:54:43;;;;;;;26.30;15.20;;;24.10;99.90;;;;;;5050955;28;20045;-81
2022/04/14 06:57:09;;;;;;;20.60;12.85;;;25.60;99.90;;;;;;5050992;28;20026;-81
2022/04/14 06:59:34;;;;;;;21.63;13.15;;;27.40;99.90;;;;;;5048562;28;20053;-81
2022/04/14 07:02:00;;;;;;;20.25;12.05;;;28.30;99.90;;;;;;5026558;28;20034;-81
2022/04/14 07:04:27;;;;;;;21.05;11.75;;;29.40;99.90;;;;;;5052400;28;20029;-82
2022/04/14 07:06:52;;;;;;;21.90;11.48;;;29.90;99.90;;;;;;5033103;28;20009;-82
2022/04/14 07:09:18;;;;;;;17.85;11.48;;;30.30;99.90;;;;;;5048612;28;20022;-81
2022/04/14 07:11:44;;;;;;;17.83;10.88;;;31.50;99.90;;;;;;5041099;28;20022;-82
2022/04/14 07:14:09;;;;;;;18.75;11.60;;;32.10;99.90;;;;;;5051699;28;20061;-82
2022/04/14 07:16:35;;;;;;;16.25;10.18;;;32.30;99.90;;;;;;5056641;28;20024;-82
2022/04/14 07:19:00;;;;;;;15.93;10.20;;;33.20;99.90;;;;;;5044208;28;20081;-82
2022/04/14 07:21:26;;;;;;;16.17;9.77;;;34.00;99.90;;;;;;5038446;28;20033;-83
2022/04/14 07:23:52;;;;;;;15.55;10.75;;;34.20;99.90;;;;;;5048399;28;20018;-82
2022/04/14 07:26:17;;;;;;;16.98;10.70;;;34.70;99.90;;;;;;5049463;28;20017;-82
2022/04/14 07:28:43;;;;;;;16.27;10.80;;;34.10;99.90;;;;;;5042260;28;20022;-82
2022/04/14 07:31:09;;;;;;;14.48;10.05;;;33.90;99.90;;;;;;5053018;28;20082;-83
2022/04/14 07:33:36;;;;;;;14.85;9.77;;;34.20;99.90;;;;;;5039277;28;20025;-83
2022/04/14 07:36:02;;;;;;;16.58;10.75;;;35.40;99.90;;;;;;5050616;28;20085;-82
2022/04/14 07:38:28;;;;;;;14.38;10.43;;;36.60;99.90;;;;;;5051174;28;20017;-83
2022/04/14 07:40:56;;;;;;;14.55;10.23;;;36.60;99.90;;;;;;5048361;28;20018;-82
2022/04/14 07:43:22;;;;;;;14.55;10.20;;;37.00;99.90;;;;;;5050469;28;20014;-82
2022/04/14 07:45:47;;;;;;;14.10;10.80;;;37.50;99.90;;;;;;5042024;28;20026;-82
2022/04/14 07:48:13;;;;;;;16.00;10.38;;;37.90;99.90;;;;;;5029784;28;20102;-82
2022/04/14 07:50:39;;;;;;;14.00;10.05;;;37.40;99.90;;;;;;5034016;28;20032;-82
2022/04/14 07:53:04;;;;;;;13.88;9.65;;;37.40;99.90;;;;;;5049607;28;20030;-82
2022/04/14 07:55:32;;;;;;;14.68;9.73;;;38.20;99.90;;;;;;5058254;28;20036;-81
2022/04/14 07:58:06;;;;;;;13.45;9.88;;;39.00;99.90;;;;;;5040795;28;20060;-81
2022/04/14 08:00:33;;;;;;;13.48;9.73;;;39.30;99.90;;;;;;5028064;28;20028;-82
2022/04/14 08:03:01;;;;;;;14.00;10.40;;;38.30;99.90;;;;;;5023960;28;20027;-83
2022/04/14 08:05:36;;;;;;;11.95;9.07;;;38.80;99.90;;;;;;5027722;28;20030;-82
2022/04/14 08:08:03;;;;;;;14.57;10.77;;;38.40;99.90;;;;;;5035034;28;20102;-83
2022/04/14 08:10:29;;;;;;;13.80;10.35;;;38.20;99.90;;;;;;5044787;28;20046;-81
2022/04/14 08:12:55;;;;;;;13.32;9.52;;;37.40;99.90;;;;;;5042885;28;20048;-82
2022/04/14 08:15:21;;;;;;;11.95;9.40;;;38.30;99.90;;;;;;5029666;28;20064;-82
2022/04/14 08:17:47;;;;;;;14.32;10.40;;;38.60;99.90;;;;;;5032890;28;20029;-80
2022/04/14 08:20:14;;;;;;;16.15;9.60;;;39.60;99.90;;;;;;5038545;28;20018;-82
2022/04/14 08:22:59;;;;;;;11.60;8.10;;;38.70;99.90;;;;;;5036430;28;20086;-82
2022/04/14 08:25:29;;;;;;;12.45;8.68;;;39.70;99.90;;;;;;5053289;28;20052;-82
2022/04/14 08:27:56;;;;;;;12.77;9.27;;;37.80;99.90;;;;;;5043312;28;20013;-81
2022/04/14 08:30:23;;;;;;;12.18;8.98;;;38.80;99.90;;;;;;5044740;28;20036;-83
2022/04/14 08:32:50;;;;;;;12.02;8.57;;;39.30;99.90;;;;;;5055093;28;20021;-82
2022/04/14 08:35:17;;;;;;;11.13;8.88;;;40.10;99.90;;;;;;5046293;28;20021;-83
2022/04/14 08:37:43;;;;;;;14.45;9.32;;;39.50;99.90;;;;;;5043768;28;20025;-82
2022/04/14 08:40:12;;;;;;;12.18;8.38;;;40.00;99.90;;;;;;5033167;28;20057;-81
2022/04/14 08:42:40;;;;;;;10.33;8.40;;;40.80;99.90;;;;;;5030604;28;20057;-82
2022/04/14 08:45:09;;;;;;;11.70;7.85;;;41.10;99.90;;;;;;5025856;28;20034;-81
2022/04/14 08:47:36;;;;;;;12.70;8.65;;;40.90;99.90;;;;;;5029062;28;20026;-81
2022/04/14 08:50:07;;;;;;;9.13;7.22;;;40.30;99.90;;;;;;5023085;28;20026;-83
2022/04/14 08:52:37;;;;;;;7.90;6.80;;;40.10;99.90;;;;;;5026140;28;20022;-81
2022/04/14 08:55:05;;;;;;;10.70;7.38;;;38.50;99.90;;;;;;5028840;28;20042;-80
2022/04/14 08:57:32;;;;;;;9.05;7.53;;;39.20;99.90;;;;;;5030541;28;20029;-81
2022/04/14 09:00:00;;;;;;;12.82;7.47;;;40.60;99.90;;;;;;5039732;28;20021;-83
2022/04/14 09:02:27;;;;;;;9.10;7.05;;;40.20;99.90;;;;;;5007709;28;20014;-83
2022/04/14 09:04:53;;;;;;;8.68;6.70;;;41.20;99.90;;;;;;5019842;28;20027;-82
2022/04/14 09:07:19;;;;;;;8.95;6.68;;;40.90;99.90;;;;;;5039289;28;20021;-83
2022/04/14 09:09:45;;;;;;;8.10;5.53;;;40.20;99.90;;;;;;5048712;28;20017;-83
2022/04/14 09:12:12;;;;;;;8.95;6.20;;;39.90;99.90;;;;;;5048305;28;20018;-83
2022/04/14 09:14:38;;;;;;;8.95;6.10;;;39.30;99.90;;;;;;5048658;28;20049;-83
2022/04/14 09:17:05;;;;;;;8.35;4.82;;;39.40;99.90;;;;;;5041636;28;20022;-83
2022/04/14 09:19:32;;;;;;;5.05;3.20;;;39.60;99.90;;;;;;5054296;28;20044;-83
2022/04/14 09:22:10;;;;;;;6.32;4.00;;;40.30;99.90;;;;;;5050126;28;20030;-82
2022/04/14 09:24:50;;;;;;;7.38;3.80;;;40.80;99.90;;;;;;5053244;28;20037;-83
2022/04/14 09:27:34;;;;;;;6.60;4.78;;;40.80;99.90;;;;;;5044317;28;20081;-82
2022/04/14 09:30:04;;;;;;;6.38;4.30;;;40.40;99.90;;;;;;5035729;28;20018;-83
2022/04/14 09:32:42;;;;;;;8.48;5.90;;;39.20;99.90;;;;;;5041100;28;20034;-82
2022/04/14 09:35:19;;;;;;;8.63;6.95;;;38.40;99.90;;;;;;5042903;28;20034;-82
2022/04/14 09:37:45;;;;;;;9.80;6.60;;;36.50;99.90;;;;;;5043636;28;20044;-82
2022/04/14 09:40:12;;;;;;;8.05;6.15;;;35.30;99.90;;;;;;5038287;28;20037;-81
2022/04/14 09:42:42;;;;;;;9.48;7.07;;;34.50;99.90;;;;;;5042748;28;20037;-83
2022/04/14 09:45:19;;;;;;;8.30;6.75;;;35.40;99.90;;;;;;5038935;28;20047;-82
2022/04/14 09:47:45;;;;;;;6.75;5.40;;;36.10;99.90;;;;;;5045185;28;20026;-83
2022/04/14 09:50:36;;;;;;;9.95;7.93;;;35.50;99.90;;;;;;5033060;28;20033;-81
2022/04/14 09:53:07;;;;;;;9.95;6.95;;;35.70;99.90;;;;;;5033769;28;20038;-81
2022/04/14 09:55:34;;;;;;;10.15;7.35;;;35.00;99.90;;;;;;5037025;28;20454;-82
2022/04/14 09:58:17;;;;;;;12.02;7.65;;;34.40;99.90;;;;;;5036177;28;20033;-81
2022/04/14 10:00:49;;;;;;;10.20;6.45;;;33.80;99.90;;;;;;5034163;28;20044;-80
2022/04/14 10:03:17;;;;;;;9.73;6.88;;;32.90;99.90;;;;;;5029037;28;20026;-81
2022/04/14 10:05:44;;;;;;;10.02;6.45;;;34.80;99.90;;;;;;5031051;28;20064;-81
2022/04/14 10:08:12;;;;;;;7.28;5.72;;;35.50;99.90;;;;;;5032277;28;20053;-81
2022/04/14 10:10:39;;;;;;;11.05;7.88;;;31.90;99.90;;;;;;5035696;28;20015;-81
2022/04/14 10:13:07;;;;;;;10.18;6.38;;;32.40;99.90;;;;;;5027708;28;20013;-81
2022/04/14 10:15:38;;;;;;;9.57;6.55;;;33.30;99.90;;;;;;5009587;28;20046;-80
2022/04/14 10:18:10;;;;;;;11.10;7.22;;;34.80;99.90;;;;;;5033678;28;20026;-80
2022/04/14 10:20:40;;;;;;;10.35;6.68;;;33.50;99.90;;;;;;5030172;28;20030;-80
2022/04/14 10:23:08;;;;;;;11.10;7.22;;;34.60;99.90;;;;;;5012224;28;20027;-81
2022/04/14 10:25:36;;;;;;;11.18;6.90;;;35.90;99.90;;;;;;5013057;28;20026;-80
2022/04/14 10:28:03;;;;;;;11.32;7.45;;;33.90;99.90;;;;;;5024726;28;20022;-81
2022/04/14 10:30:29;;;;;;;11.88;7.88;;;34.60;99.90;;;;;;5015486;28;20041;-81
2022/04/14 10:32:56;;;;;;;11.90;7.32;;;33.80;99.90;;;;;;5012968;28;20112;-80
2022/04/14 10:35:25;;;;;;;11.02;6.65;;;32.90;99.90;;;;;;5010715;28;20101;-81
2022/04/14 10:38:01;;;;;;;8.15;5.68;;;33.10;99.90;;;;;;5011705;28;20030;-81
2022/04/14 10:40:29;;;;;;;9.07;5.95;;;31.40;99.90;;;;;;5009838;28;20185;-80
2022/04/14 10:42:56;;;;;;;9.15;5.43;;;33.10;99.90;;;;;;5028576;28;20421;-81
2022/04/14 10:45:23;;;;;;;7.22;4.78;;;34.20;99.90;;;;;;5035607;28;20033;-81
2022/04/14 10:47:55;;;;;;;6.70;4.75;;;33.30;99.90;;;;;;5030875;28;20022;-81
2022/04/14 10:50:22;;;;;;;9.32;5.85;;;32.60;99.90;;;;;;5032606;28;20269;-81
2022/04/14 10:53:12;;;;;;;7.30;5.43;;;33.00;99.90;;;;;;5010750;28;20057;-80
2022/04/14 10:55:37;;;;;;;8.48;4.80;;;32.50;99.90;;;;;;5016378;28;20042;-80
2022/04/14 10:58:04;;;;;;;7.88;5.13;;;32.10;99.90;;;;;;5040302;28;20037;-80
2022/04/14 11:00:34;;;;;;;7.45;4.45;;;30.50;99.90;;;;;;5042415;28;20044;-79
2022/04/14 11:03:11;;;;;;;7.32;4.28;;;29.60;99.90;;;;;;5015465;28;20053;-80
2022/04/14 11:05:48;;;;;;;6.88;4.35;;;27.60;99.90;;;;;;5043141;28;20096;-80
2022/04/14 11:08:27;;;;;;;7.88;4.72;;;26.60;99.90;;;;;;5015811;28;20036;-79
2022/04/14 11:11:22;;;;;;;8.33;4.60;;;26.30;99.90;;;;;;5043691;28;20029;-80
2022/04/14 11:13:51;;;;;;;8.95;5.20;;;24.40;99.90;;;;;;5025676;28;20352;-80
2022/04/14 11:16:38;;;;;;;7.05;4.25;;;24.20;99.90;;;;;;5035470;28;20052;-80
2022/04/14 11:19:19;;;;;;;8.55;3.80;;;23.60;99.90;;;;;;5046986;28;20021;-79
2022/04/14 11:24:43;;;;;;;7.15;3.70;;;22.30;99.90;;;;;;5019485;28;20053;-80
2022/04/14 11:27:24;;;;;;;5.38;3.10;;;21.90;99.90;;;;;;5027855;28;20034;-80
2022/04/14 11:29:57;;;;;;;5.57;3.53;;;21.80;99.90;;;;;;5039099;28;20025;-80
2022/04/14 11:32:38;;;;;;;6.68;3.78;;;21.80;99.90;;;;;;5027591;28;20097;-80
2022/04/14 11:35:18;;;;;;;8.60;4.55;;;21.40;99.90;;;;;;5038124;28;20029;-81
2022/04/14 11:37:49;;;;;;;10.35;5.15;;;21.20;99.90;;;;;;5049011;28;20026;-80
2022/04/14 11:40:21;;;;;;;9.07;4.82;;;22.20;99.90;;;;;;5031049;28;20033;-80
2022/04/14 11:42:48;;;;;;;7.43;5.05;;;22.00;99.90;;;;;;5030344;28;20037;-80
2022/04/14 11:45:13;;;;;;;8.73;4.97;;;21.90;99.90;;;;;;5031340;28;20037;-80
2022/04/14 11:47:40;;;;;;;10.98;5.60;;;21.30;99.90;;;;;;5039269;28;20034;-80
2022/04/14 11:50:07;;;;;;;7.07;5.15;;;21.40;99.90;;;;;;5045801;28;20030;-79
2022/04/14 11:52:33;;;;;;;11.30;4.90;;;21.20;99.90;;;;;;5035134;28;20040;-80
2022/04/14 11:55:00;;;;;;;9.40;5.25;;;21.40;99.90;;;;;;5041559;28;20036;-80
2022/04/14 11:57:29;;;;;;;8.20;5.20;;;21.50;99.90;;;;;;5045153;28;20017;-80
2022/04/14 12:00:09;;;;;;;9.10;5.63;;;20.60;99.90;;;;;;5041485;28;20536;-79
2022/04/14 12:02:35;;;;;;;;;;;21.30;99.90;;;;;;5043712;28;20018;-79
2022/04/14 12:05:01;;;;;;;6.75;4.70;;;20.70;99.90;;;;;;5037404;28;19977;-80
2022/04/14 12:07:32;;;;;;;8.00;4.70;;;20.70;99.90;;;;;;5034475;28;20022;-79
2022/04/14 12:09:59;;;;;;;9.80;4.75;;;20.80;99.90;;;;;;5042488;28;20025;-80
2022/04/14 12:12:24;;;;;;;9.57;4.70;;;20.80;99.90;;;;;;5030609;28;20097;-80
2022/04/14 12:14:52;;;;;;;9.95;4.70;;;21.00;99.90;;;;;;5037509;28;20060;-79
2022/04/14 12:17:23;;;;;;;8.85;4.45;;;21.10;99.90;;;;;;5047135;28;20029;-80
2022/04/14 12:19:59;;;;;;;6.57;4.35;;;21.00;99.90;;;;;;5041621;28;20036;-79
2022/04/14 12:22:33;;;;;;;7.22;4.47;;;20.80;99.90;;;;;;5033277;28;20053;-80
2022/04/14 12:25:02;;;;;;;10.52;5.00;;;20.60;99.90;;;;;;5022696;28;20031;-80
2022/04/14 12:27:37;;;;;;;7.40;3.95;;;21.20;99.90;;;;;;5031990;28;20022;-80
2022/04/14 12:30:11;;;;;;;8.10;3.83;;;21.30;99.90;;;;;;5020783;28;20026;-80
2022/04/14 12:32:37;;;;;;;7.70;3.67;;;21.30;99.90;;;;;;5031723;28;20029;-79
2022/04/14 12:35:06;;;;;;;8.25;4.10;;;21.40;99.90;;;;;;5035178;28;20026;-80
2022/04/14 12:37:54;;;;;;;10.05;5.13;;;21.50;99.90;;;;;;5032109;28;20022;-79
2022/04/14 12:40:24;;;;;;;7.93;4.35;;;21.80;99.90;;;;;;5032502;28;20033;-80
2022/04/14 12:42:50;;;;;;;7.43;4.60;;;22.50;99.90;;;;;;5041745;28;20029;-80
2022/04/14 12:45:17;;;;;;;6.25;4.93;;;22.30;99.90;;;;;;5031058;28;20034;-80
2022/04/14 12:47:46;;;;;;;6.63;4.05;;;22.10;99.90;;;;;;5033403;28;20025;-80